Active alerts

Gallatin County, MT
  Details for Gallatin County, MT Winter Storm Warning
Gallatin County, MT
  Details for Gallatin County, MT Hydrologic Outlook

Thunder radar more information blitzortung!


Rain radar more information rain snow radar



Nearby METAR Reports

   
KNUQ - Mountain View, CA
Updated: Apr 21 2019 10:56 pm
Clear  
Clear  
   Wind: NNE 4.6 mph
Wind: NNE 4.6 mph
Temperature: 53.6°F
Dew Point: 48.2°F
Humidity: 82%
Barometer: 30.1 inHg
Clouds: Clear
Visibility: 10 mi
Cloud details: Clear ft
KNUQ 220556Z 02004KT 10SM CLR 12/09 A3010 RMK AO2 SLP196 T01170089 10194 20117 50012 $
KSFO - San Francisco, CA
Updated: Apr 21 2019 10:56 pm
Partly Cloudy  
Partly Cloudy  
   Wind: West 15 mph
Wind: West 15 mph
Temperature: 50°F
Wind Chill: 44.6°F
Dew Point: 46.4°F
Humidity: 88%
Barometer: 30.1 inHg
Clouds: Partly Cloudy
Visibility: 10 mi
Cloud details: Few Clouds 800 ft,
Partly Cloudy 18000 ft
KSFO 220556Z 28013KT 10SM FEW008 SCT180 10/08 A3010 RMK AO2 SLP193 T01000078 10161 20100 50010
KSJC - San Jose, CA
Updated: Apr 21 2019 10:53 pm
Few Clouds  
Few Clouds  
   Wind: North 4.6 mph
Wind: North 4.6 mph
Temperature: 53.6°F
Dew Point: 48.2°F
Humidity: 82%
Barometer: 30.1 inHg
Clouds: Few Clouds
Visibility: 10 mi
Cloud details: Few Clouds 8000 ft
KSJC 220553Z 35004KT 10SM FEW080 12/09 A3010 RMK AO2 SLP194 T01220089 10206 20117 51013 $
KOAK - Oakland, CA
Updated: Apr 21 2019 10:53 pm
Few Clouds  
Few Clouds  
   Wind: SW 8.1 mph
Wind: SW 8.1 mph
Temperature: 53.6°F
Dew Point: 48.2°F
Humidity: 82%
Barometer: 30.1 inHg
Clouds: Few Clouds
Visibility: 10 mi
Cloud details: Few Clouds 1000 ft
KOAK 220553Z 23007KT 10SM FEW010 12/09 A3010 RMK AO2 SLP193 T01220094 10211 20117 51010
KMRY - Monterey, CA
Updated: Apr 21 2019 10:54 pm
Overcast  
Overcast  
   Wind: SW 8.1 mph
Wind: SW 8.1 mph
Temperature: 51.8°F
Dew Point: 44.6°F
Humidity: 77%
Barometer: 30.14 inHg
Clouds: Overcast
Visibility: 8 mi
Cloud details: Mostly Cloudy 1100 ft,
Overcast 1600 ft
KMRY 220554Z AUTO 23007KT 8SM BKN011 OVC016 11/07 A3014 RMK AO2 SLP218 T01110072 10156 20111 51009
KWYS - West Yellowstone, MT
Updated: Apr 21 2019 11:35 pm
Overcast  
Overcast  
   Wind: NE 6.9 mph
Wind: NE 6.9 mph
Temperature: 35.6°F
Wind Chill: 30.2°F
Dew Point: 30.2°F
Humidity: 81%
Barometer: 30.17 inHg
Clouds: Overcast
Visibility: 10 mi
Cloud details: Mostly Cloudy 6000 ft,
Overcast 7000 ft
KWYS 220635Z AUTO 05006KT 10SM BKN060 OVC070 02/M01 A3017 RMK AO2
KDCA - Washington, DC
Updated: Apr 21 2019 10:52 pm
Partly Cloudy  
Partly Cloudy  
   Wind: NNW 10.4 mph
Wind: NNW 10.4 mph
Temperature: 57.2°F
Dew Point: 42.8°F
Humidity: 59%
Barometer: 30.1 inHg
Clouds: Partly Cloudy
Visibility: 10 mi
Cloud details: Partly Cloudy 11000 ft
KDCA 220552Z 33009KT 10SM SCT110 14/06 A3010 RMK AO2 SLP191 60000 T01440061 10183 20144 50004
KIAD - Washington Dulles, VA
Updated: Apr 21 2019 10:52 pm
Overcast  
Overcast  
   Wind: NNW 10.4 mph
Wind: NNW 10.4 mph
Temperature: 55.4°F
Dew Point: 41°F
Humidity: 59%
Barometer: 30.11 inHg
Clouds: Overcast
Visibility: 10 mi
Cloud details: Mostly Cloudy 7000 ft,
Mostly Cloudy 10000 ft,
Overcast 15000 ft
KIAD 220552Z 33009KT 10SM BKN070 BKN100 OVC150 13/05 A3011 RMK AO2 SLP197 T01330050 10172 20133 50004
KMIA - Miami Beach, FL
Updated: Apr 21 2019 10:53 pm
Few Clouds  
Few Clouds  
   Wind: East 4.6 mph
Wind: East 4.6 mph
Temperature: 71.6°F
Dew Point: 57.2°F
Humidity: 61%
Barometer: 30.13 inHg
Clouds: Few Clouds
Visibility: 10 mi
Cloud details: Few Clouds 4000 ft
KMIA 220553Z 09004KT 10SM FEW040 22/14 A3013 RMK AO2 SLP201 T02170144 10233 20206 58006

Script developed by  Saratoga-weather.org Adapted for the template by  Weerstation Leuven

You find our weather info also at:

Weather Underground

Citizen Weather Observer Program (CWOP)

Equipment we use:

Weather-station
Ambient WS-1400-IP

Weather-program
Meteobridge

Weather-server
TP-LINK TL-MR3020

Ambient WS-1400-IP

Meteobridge

TP-LINK TL-MR3020